Pagrindinis puslapis
METAR-TAF:

METAR-TAF

Oro uostai :

Gilze en Rijen, Nyderlandai

platuma: 51-34N, ilguma: 004-56E, Aukštis: 15 m

Dabartinis oras

Ataskaita buvo paskelbta 6 minutes, ne 22:55 UTC
Vėjas 4 kt iš Rytų, svyruoja nuo Šiaurės/Šiaurės Rytų ir Rytų
Temperatūra 15°C
Drėgmė 51%
Slėgis 1022 hPa
Matomumas 10 km arba daugiau

METAR: EHGR 302255Z AUTO 08004KT 030V100 9999 NCD 15/05 Q1022 BLU

Laikas: 01:01 (23:01 UTC)


TAF: trūkstamas

Orai ataskaitas ir orų prognozės (METAR, TAF).

turimą stotys yra geltonos ir raudonos taškus žemėlapyje.

Perkelti pele per norėdami pamatyti stoties vardą.

Tada spustelėkite, norėdami matyti oro stebėjimo ir prognozės.

Norėdami pakeisti žemėlapį: spustelėkite ant žalios mygtukų su juodo kryžiaus žemyn,; žalią mygtuką su brūkšneliu, jei norite nutolinti; arba žalių rodyklių gretimoms žemėlapius.


METAR-TAF: